Time;durP1;ratioP1;P1;durP2;ratioP2;P2;SDS_P1;SDS_P2;PMS_P1;PMS_P2;Temp;Humidity;BMP_temperature;BMP_pressure;BME280_temperature;BME280_humidity;BME280_pressure;Samples;Min_cycle;Max_cycle;Signal;HPM_P1;HPM_P2
2021/12/05 00:19:02;;;;;;;;;2.00;1.00;;;;;5.01;99.40;99546.25;5019502;28;10861;-68
2021/12/05 00:21:43;;;;;;;;;2.00;2.00;;;;;4.93;98.92;99551.69;5025858;28;10719;-68
2021/12/05 00:24:16;;;;;;;;;2.50;2.50;;;;;4.96;99.17;99545.97;5015516;28;10770;-68
2021/12/05 00:26:51;;;;;;;;;1.75;1.75;;;;;4.99;99.43;99544.78;5026947;28;10830;-68
2021/12/05 00:29:30;;;;;;;;;3.50;3.50;;;;;4.97;99.51;99544.97;5022201;28;10758;-68
2021/12/05 00:45:45;;;;;;;;;2.50;1.00;;;;;4.74;98.67;99536.16;5021859;28;10746;-68
2021/12/05 00:51:16;;;;;;;;;3.50;3.25;;;;;4.75;98.49;99548.56;5024289;28;10815;-69
2021/12/05 00:57:07;;;;;;;;;2.00;2.00;;;;;4.76;98.74;99556.41;5021810;28;10822;-69
2021/12/05 01:10:10;;;;;;;;;2.00;2.00;;;;;4.69;98.99;99558.13;5029654;28;11007;-69
2021/12/05 01:13:26;;;;;;;;;2.50;1.50;;;;;4.69;99.03;99565.34;5028891;28;10642;-69
2021/12/05 01:15:49;;;;;;;;;6.50;3.50;;;;;4.67;99.05;99564.69;5020037;28;10855;-69
2021/12/05 01:18:18;;;;;;;;;3.00;3.00;;;;;4.61;98.65;99556.38;5011926;28;11012;-68
2021/12/05 01:20:55;;;;;;;;;6.00;3.25;;;;;4.62;98.72;99563.41;5011691;28;11641;-69
2021/12/05 01:26:02;;;;;;;;;2.50;2.50;;;;;4.67;99.03;99568.22;5015675;28;10749;-69
2021/12/05 01:50:32;;;;;;;;;4.75;3.50;;;;;4.61;99.38;99577.00;5025436;28;10749;-68
2021/12/05 02:02:27;;;;;;;;;5.00;5.00;;;;;4.55;99.22;99567.84;5039755;28;10929;-69
2021/12/05 02:10:59;;;;;;;;;4.25;4.25;;;;;4.49;99.20;99563.22;5025473;28;10961;-67
2021/12/05 02:37:51;;;;;;;;;7.75;5.00;;;;;4.41;98.37;99544.50;5023753;28;11228;-69
2021/12/05 02:42:46;;;;;;;;;8.00;6.00;;;;;4.41;98.10;99552.53;5010042;28;10971;-67
2021/12/05 02:45:13;;;;;;;;;8.00;8.00;;;;;4.40;97.30;99556.22;5018187;28;11119;-67
2021/12/05 02:47:47;;;;;;;;;7.25;6.75;;;;;4.42;97.44;99548.00;5013929;28;11200;-68
2021/12/05 02:50:16;;;;;;;;;5.50;5.50;;;;;4.45;97.45;99555.69;4997947;28;11473;-67
2021/12/05 02:52:43;;;;;;;;;4.75;3.75;;;;;4.40;97.12;99558.06;5018315;28;11148;-68
2021/12/05 02:55:17;;;;;;;;;6.00;4.00;;;;;4.39;96.74;99562.59;5027357;28;11288;-69
2021/12/05 02:57:51;;;;;;;;;6.00;6.00;;;;;4.44;96.86;99560.22;5027155;28;10972;-68
2021/12/05 03:00:36;;;;;;;;;5.25;5.25;;;;;4.43;96.38;99555.03;5028681;28;11128;-68
2021/12/05 03:03:17;;;;;;;;;4.50;4.50;;;;;4.48;96.54;99555.34;5026496;28;11144;-67
2021/12/05 03:05:54;;;;;;;;;9.00;5.25;;;;;4.45;95.96;99559.19;5023927;28;11071;-68
2021/12/05 03:08:20;;;;;;;;;5.00;5.00;;;;;4.47;96.26;99551.84;5023797;28;10963;-67
2021/12/05 03:10:49;;;;;;;;;7.25;7.25;;;;;4.47;96.18;99562.56;5028909;28;11007;-68
2021/12/05 03:13:16;;;;;;;;;9.00;8.00;;;;;4.41;95.77;99557.06;5027649;28;11094;-68
2021/12/05 03:15:43;;;;;;;;;5.00;5.00;;;;;4.43;95.99;99563.06;5016699;28;11232;-68
2021/12/05 03:18:10;;;;;;;;;8.00;7.00;;;;;4.41;95.77;99559.75;5011023;28;10973;-68
2021/12/05 03:20:36;;;;;;;;;8.00;6.00;;;;;4.39;95.37;99567.97;5016182;28;11512;-68
2021/12/05 03:23:04;;;;;;;;;2.50;2.00;;;;;4.39;95.21;99564.44;5018514;28;11482;-68
2021/12/05 03:25:31;;;;;;;;;4.00;4.00;;;;;4.43;95.57;99568.44;5006109;28;10926;-68
2021/12/05 03:28:02;;;;;;;;;7.25;5.75;;;;;4.41;95.63;99557.91;5028657;28;11158;-68
2021/12/05 03:30:31;;;;;;;;;9.25;7.25;;;;;4.43;95.44;99568.44;5015428;28;11057;-67
2021/12/05 03:32:58;;;;;;;;;7.00;5.00;;;;;4.39;95.65;99564.44;5015438;28;12169;-68
2021/12/05 03:35:28;;;;;;;;;4.00;4.00;;;;;4.36;95.56;99564.81;5005538;28;10988;-68
2021/12/05 03:37:57;;;;;;;;;6.00;6.00;;;;;4.35;95.71;99563.97;5014394;28;10963;-68
2021/12/05 03:40:26;;;;;;;;;6.75;4.50;;;;;4.33;95.63;99569.53;5024936;28;11953;-68
2021/12/05 03:42:57;;;;;;;;;5.50;4.75;;;;;4.37;95.64;99566.47;5012981;28;11196;-68
2021/12/05 03:45:31;;;;;;;;;7.75;7.75;;;;;4.35;95.83;99566.66;5029691;28;11217;-68
2021/12/05 03:47:58;;;;;;;;;5.50;4.75;;;;;4.33;96.19;99571.38;5026581;28;11301;-68
2021/12/05 03:50:27;;;;;;;;;4.50;4.50;;;;;4.32;95.95;99567.03;5019895;28;11128;-68
2021/12/05 03:52:55;;;;;;;;;6.75;5.75;;;;;4.35;96.15;99577.38;5012069;28;11187;-68
2021/12/05 03:55:24;;;;;;;;;6.75;5.75;;;;;4.33;95.81;99566.84;5024614;28;11123;-67
2021/12/05 03:57:51;;;;;;;;;7.50;7.50;;;;;4.31;95.44;99574.22;5009901;28;11268;-68
2021/12/05 04:00:23;;;;;;;;;5.00;5.00;;;;;4.40;95.96;99577.66;5024339;28;11285;-68
2021/12/05 04:02:55;;;;;;;;;4.00;4.00;;;;;4.40;95.94;99575.00;4993030;28;11122;-67
2021/12/05 04:05:26;;;;;;;;;3.00;3.00;;;;;4.39;95.79;99575.16;5020913;28;11146;-68
2021/12/05 04:07:54;;;;;;;;;6.25;4.75;;;;;4.34;95.70;99578.41;5028462;28;10983;-68
2021/12/05 04:10:22;;;;;;;;;8.50;8.00;;;;;4.35;95.60;99581.91;5017743;28;11167;-68
2021/12/05 04:12:50;;;;;;;;;8.00;5.00;;;;;4.36;95.69;99584.41;5008810;28;11461;-70
2021/12/05 04:15:19;;;;;;;;;8.75;7.25;;;;;4.32;95.67;99588.47;5029866;28;11085;-67
2021/12/05 04:17:49;;;;;;;;;6.00;6.00;;;;;4.31;95.57;99592.16;5033442;28;11458;-69
2021/12/05 04:20:18;;;;;;;;;3.00;2.00;;;;;4.27;95.71;99586.31;5030019;28;11448;-68
2021/12/05 04:22:47;;;;;;;;;6.25;4.50;;;;;4.29;95.58;99583.47;5022898;28;11460;-67
2021/12/05 04:25:14;;;;;;;;;6.50;6.00;;;;;4.29;95.68;99588.81;5018112;28;11498;-68
2021/12/05 04:27:43;;;;;;;;;9.50;7.00;;;;;4.30;95.74;99583.28;5026974;28;11474;-68
2021/12/05 04:30:13;;;;;;;;;8.75;7.50;;;;;4.25;95.79;99580.31;5020853;28;11245;-68
2021/12/05 04:32:40;;;;;;;;;7.00;6.00;;;;;4.33;95.96;99584.78;5015355;28;11136;-68
2021/12/05 04:35:07;;;;;;;;;7.50;4.75;;;;;4.32;96.07;99586.63;5022712;28;11186;-68
2021/12/05 04:37:34;;;;;;;;;6.25;5.75;;;;;4.34;96.04;99586.44;5013180;28;11173;-68
2021/12/05 04:40:03;;;;;;;;;3.00;2.00;;;;;4.39;96.37;99585.88;5012375;28;11174;-68
2021/12/05 04:42:31;;;;;;;;;6.50;6.50;;;;;4.33;96.16;99577.56;5012084;28;11046;-67
2021/12/05 04:45:01;;;;;;;;;5.50;5.50;;;;;4.36;95.58;99575.53;5021262;28;11091;-69
2021/12/05 04:47:28;;;;;;;;;8.75;6.25;;;;;4.36;95.42;99581.72;5028993;28;11135;-68
2021/12/05 04:49:55;;;;;;;;;5.00;4.75;;;;;4.36;95.63;99578.22;5014542;28;12167;-69
2021/12/05 04:52:24;;;;;;;;;8.25;7.75;;;;;4.35;95.68;99582.75;5025834;28;11142;-68
2021/12/05 04:54:50;;;;;;;;;7.00;5.00;;;;;4.41;95.66;99586.53;5020808;28;11059;-69
2021/12/05 04:57:19;;;;;;;;;4.00;3.00;;;;;4.39;95.67;99584.03;5031472;28;10914;-67
2021/12/05 04:59:49;;;;;;;;;7.25;7.25;;;;;4.40;95.66;99576.84;5031049;28;11841;-68
2021/12/05 05:02:18;;;;;;;;;4.75;3.00;;;;;4.41;95.58;99579.34;5014829;28;11150;-68
2021/12/05 05:04:49;;;;;;;;;6.50;6.00;;;;;4.44;95.59;99586.19;5015347;28;10980;-69
2021/12/05 05:07:23;;;;;;;;;7.00;4.50;;;;;4.50;96.13;99597.03;5017957;28;12068;-67
2021/12/05 05:09:53;;;;;;;;;3.00;3.00;;;;;4.45;95.67;99599.38;5025604;28;11079;-67
2021/12/05 05:12:20;;;;;;;;;7.25;7.25;;;;;4.43;95.81;99603.25;4995702;28;10885;-67
2021/12/05 05:14:47;;;;;;;;;4.50;4.50;;;;;4.47;96.26;99616.16;5020590;28;11069;-68
2021/12/05 05:17:14;;;;;;;;;6.00;6.00;;;;;4.49;96.36;99613.28;5032346;28;10967;-68
2021/12/05 05:19:46;;;;;;;;;6.00;6.00;;;;;4.49;95.91;99615.97;5030244;28;10969;-67
2021/12/05 05:30:29;;;;;;;;;3.00;3.00;;;;;4.43;95.29;99630.06;5023905;28;11448;-67
2021/12/05 05:44:11;;;;;;;;;8.50;6.75;;;;;4.37;95.16;99644.19;5028514;28;11135;-69
2021/12/05 05:51:57;;;;;;;;;6.00;6.00;;;;;4.35;94.81;99651.56;5011228;28;11529;-68
2021/12/05 05:54:24;;;;;;;;;6.50;6.00;;;;;4.37;94.56;99649.53;5012303;28;11203;-68
2021/12/05 05:56:56;;;;;;;;;5.00;4.25;;;;;4.36;94.58;99662.09;5030785;28;11535;-68
2021/12/05 05:59:27;;;;;;;;;9.75;4.75;;;;;4.33;94.42;99659.78;5030818;28;11198;-68
2021/12/05 06:04:20;;;;;;;;;5.50;5.50;;;;;4.29;94.71;99679.91;5021063;28;11114;-69
2021/12/05 06:06:50;;;;;;;;;5.00;5.00;;;;;4.30;94.93;99674.38;5015975;28;11564;-68
2021/12/05 06:09:16;;;;;;;;;4.00;4.00;;;;;4.23;94.27;99684.13;5013503;28;11531;-69
2021/12/05 06:11:42;;;;;;;;;5.00;4.50;;;;;4.33;94.93;99689.25;5030462;28;11290;-69
2021/12/05 06:14:09;;;;;;;;;4.25;4.25;;;;;4.39;95.14;99698.41;5026769;28;11232;-68
2021/12/05 06:16:35;;;;;;;;;5.25;4.25;;;;;4.39;94.86;99704.63;5031483;28;11148;-68
2021/12/05 06:19:02;;;;;;;;;3.00;1.00;;;;;4.40;95.14;99703.59;5015991;28;11296;-68
2021/12/05 06:21:29;;;;;;;;;5.50;5.00;;;;;4.40;95.26;99697.41;5030746;28;11802;-69
2021/12/05 06:23:55;;;;;;;;;6.75;5.50;;;;;4.42;95.51;99701.56;5031001;28;11464;-68
2021/12/05 06:26:23;;;;;;;;;6.25;6.25;;;;;4.36;95.14;99699.63;5025560;28;11904;-68
2021/12/05 06:29:04;;;;;;;;;5.50;5.50;;;;;4.39;95.52;99693.06;5022235;28;11216;-68
2021/12/05 06:31:55;;;;;;;;;8.00;5.00;;;;;4.40;95.68;99708.13;5027315;28;10960;-67
2021/12/05 06:37:28;;;;;;;;;4.00;3.50;;;;;4.45;96.01;99709.25;5019968;28;12164;-69
2021/12/05 06:40:22;;;;;;;;;5.50;5.50;;;;;4.48;96.20;99711.59;5018754;28;12225;-69
2021/12/05 06:47:56;;;;;;;;;12.50;10.00;;;;;4.47;96.38;99720.66;5030777;28;11595;-70
2021/12/05 06:50:22;;;;;;;;;8.00;6.00;;;;;4.50;96.45;99727.50;5021874;28;11530;-69
2021/12/05 06:52:49;;;;;;;;;10.75;9.00;;;;;4.48;96.25;99735.72;5010864;28;11603;-70
2021/12/05 06:55:16;;;;;;;;;10.00;9.50;;;;;4.47;96.01;99733.22;5021377;28;11448;-69
2021/12/05 06:57:44;;;;;;;;;12.75;7.00;;;;;4.50;96.06;99727.50;5020809;28;12280;-69
2021/12/05 07:00:18;;;;;;;;;4.75;4.75;;;;;4.53;96.29;99738.72;5021968;28;11502;-68
2021/12/05 07:02:45;;;;;;;;;9.75;6.50;;;;;4.53;96.32;99730.66;5019724;28;11494;-68
2021/12/05 07:07:43;;;;;;;;;8.50;7.25;;;;;4.56;96.51;99735.66;5030268;28;11201;-69
2021/12/05 07:10:13;;;;;;;;;6.00;6.00;;;;;4.52;96.29;99730.84;5021578;28;11553;-69
2021/12/05 07:15:34;;;;;;;;;7.50;6.50;;;;;4.58;96.90;99743.53;5019865;28;11504;-70
2021/12/05 07:23:46;;;;;;;;;9.75;9.00;;;;;4.47;96.38;99752.81;5021619;28;12160;-69
2021/12/05 07:26:22;;;;;;;;;9.75;9.50;;;;;4.44;96.28;99763.88;5019441;28;11502;-69
2021/12/05 07:42:40;;;;;;;;;9.00;8.00;;;;;4.44;96.12;99790.66;5021687;28;11532;-70
2021/12/05 07:45:10;;;;;;;;;6.00;6.00;;;;;4.49;96.52;99793.69;5024028;28;11495;-69
2021/12/05 07:47:40;;;;;;;;;4.50;4.00;;;;;4.50;96.53;99787.31;5021354;28;11545;-69
2021/12/05 07:50:10;;;;;;;;;7.25;5.00;;;;;4.49;96.16;99791.00;5022020;28;11151;-70
2021/12/05 07:52:46;;;;;;;;;7.25;7.25;;;;;4.46;96.05;99788.66;5024428;28;11197;-69
2021/12/05 07:55:23;;;;;;;;;5.75;4.00;;;;;4.46;96.05;99794.03;5015496;28;11491;-70
2021/12/05 08:01:28;;;;;;;;;11.00;8.50;;;;;4.50;96.33;99803.38;5036833;28;11614;-69
2021/12/05 08:14:58;;;;;;;;;7.50;4.00;;;;;4.58;96.57;99822.09;5026318;28;11449;-69
2021/12/05 08:17:25;;;;;;;;;5.25;5.00;;;;;4.61;96.61;99826.25;5028903;28;11524;-69
2021/12/05 08:19:51;;;;;;;;;5.25;5.25;;;;;4.60;96.33;99827.28;5027926;28;11478;-69
2021/12/05 08:22:19;;;;;;;;;5.75;5.75;;;;;4.66;96.53;99823.06;5020499;28;11225;-70
2021/12/05 08:24:48;;;;;;;;;4.75;4.00;;;;;4.64;96.53;99828.59;5024162;28;11454;-69
2021/12/05 08:27:15;;;;;;;;;6.00;4.00;;;;;4.68;96.66;99839.78;5021147;28;11323;-70
2021/12/05 08:29:50;;;;;;;;;6.75;5.50;;;;;4.68;96.78;99840.63;5021926;28;11461;-68
2021/12/05 08:35:42;;;;;;;;;7.00;7.00;;;;;4.68;96.81;99850.50;5017088;28;11984;-69
2021/12/05 09:52:02;;;;;;;;;9.25;8.75;;;;;5.04;97.27;99972.38;5020767;28;11201;-70
2021/12/05 10:10:44;;;;;;;;;10.00;6.25;;;;;5.09;96.92;99998.66;5030334;28;11462;-69
2021/12/05 10:13:21;;;;;;;;;6.75;6.75;;;;;5.05;96.50;100000.88;5013395;28;11106;-70
2021/12/05 10:15:58;;;;;;;;;10.50;9.25;;;;;5.02;96.27;100001.22;5026158;28;11106;-69
2021/12/05 10:38:12;;;;;;;;;13.00;9.00;;;;;5.12;96.19;100019.78;5021378;28;11125;-69
2021/12/05 10:40:47;;;;;;;;;13.25;11.25;;;;;5.16;96.22;100021.94;5030660;28;11163;-69
2021/12/05 10:43:20;;;;;;;;;10.00;10.00;;;;;5.22;96.09;100020.41;5026594;28;11163;-69
2021/12/05 10:45:53;;;;;;;;;15.50;13.75;;;;;5.20;96.00;100017.91;5026274;28;11252;-69
2021/12/05 10:48:25;;;;;;;;;13.75;11.00;;;;;5.19;95.60;100024.25;5026569;28;11321;-70
2021/12/05 10:50:56;;;;;;;;;17.25;10.75;;;;;5.18;95.65;100024.44;5025299;28;11051;-70
2021/12/05 10:53:46;;;;;;;;;11.25;10.75;;;;;5.20;95.64;100034.00;5028454;28;11013;-69
2021/12/05 10:56:23;;;;;;;;;15.00;12.00;;;;;5.19;95.52;100031.47;5027823;28;11121;-70
2021/12/05 10:59:08;;;;;;;;;13.50;12.75;;;;;5.19;95.31;100036.84;5026979;28;11166;-69
2021/12/05 11:01:40;;;;;;;;;17.50;14.50;;;;;5.21;95.29;100041.06;5025133;28;11277;-69
2021/12/05 11:04:18;;;;;;;;;16.00;13.50;;;;;5.24;95.71;100043.38;5029818;28;11183;-69
2021/12/05 11:06:51;;;;;;;;;14.25;12.00;;;;;5.26;95.35;100045.88;5027405;28;12119;-70
2021/12/05 11:09:25;;;;;;;;;15.25;12.75;;;;;5.23;95.13;100046.25;5022183;28;11152;-70
2021/12/05 11:12:16;;;;;;;;;21.00;16.50;;;;;5.23;95.16;100047.06;5010775;28;11523;-69
2021/12/05 11:14:48;;;;;;;;;21.50;14.00;;;;;5.27;95.36;100054.78;5028087;28;11486;-70
2021/12/05 11:17:18;;;;;;;;;13.50;10.00;;;;;5.35;95.80;100060.94;5029720;28;11168;-70
2021/12/05 11:20:18;;;;;;;;;16.00;15.50;;;;;5.33;95.57;100068.31;5028778;28;11509;-71
2021/12/05 11:22:47;;;;;;;;;10.75;9.50;;;;;5.38;95.94;100065.94;5026362;28;11265;-70
2021/12/05 11:25:19;;;;;;;;;17.00;12.00;;;;;5.38;95.71;100068.63;5026911;28;11833;-69
2021/12/05 11:27:52;;;;;;;;;10.50;10.50;;;;;5.43;95.83;100070.78;5028228;28;11235;-70
2021/12/05 11:30:30;;;;;;;;;21.75;18.50;;;;;5.45;95.75;100066.09;5028561;28;11113;-70
2021/12/05 11:33:05;;;;;;;;;16.75;13.75;;;;;5.40;95.21;100071.16;5029387;28;11478;-71
2021/12/05 11:35:45;;;;;;;;;22.50;19.50;;;;;5.40;94.94;100081.88;5027506;28;11271;-70
2021/12/05 11:38:27;;;;;;;;;17.50;17.50;;;;;5.48;94.78;100079.19;5011262;28;11533;-71
2021/12/05 11:41:11;;;;;;;;;16.50;15.00;;;;;5.48;94.67;100077.34;5023569;28;11534;-71
2021/12/05 11:43:52;;;;;;;;;19.50;15.00;;;;;5.53;94.62;100087.53;5023236;28;12287;-70
2021/12/05 11:46:29;;;;;;;;;15.50;12.25;;;;;5.55;94.51;100078.28;5027858;28;12023;-70
2021/12/05 11:49:13;;;;;;;;;13.00;13.00;;;;;5.54;94.31;100092.72;4998069;28;11492;-71
2021/12/05 11:52:02;;;;;;;;;14.25;8.75;;;;;5.50;93.87;100099.47;5029680;28;11271;-72
2021/12/05 11:54:41;;;;;;;;;14.75;13.75;;;;;5.52;94.12;100097.44;5029048;28;11339;-70
2021/12/05 11:57:18;;;;;;;;;14.50;14.50;;;;;5.55;94.40;100104.31;5019537;28;12009;-71
2021/12/05 11:59:52;;;;;;;;;11.00;11.00;;;;;5.49;94.00;100105.00;5022731;28;11285;-71
2021/12/05 12:02:29;;;;;;;;;16.75;15.25;;;;;5.49;94.19;100108.53;5019966;28;11127;-71
2021/12/05 12:05:07;;;;;;;;;23.25;19.50;;;;;5.52;94.64;100113.56;5027597;28;11625;-72
2021/12/05 12:07:44;;;;;;;;;16.75;13.00;;;;;5.51;94.58;100108.34;5029365;28;11480;-71
2021/12/05 12:10:14;;;;;;;;;15.50;13.00;;;;;5.50;94.84;100107.53;5027540;28;11536;-70
2021/12/05 12:12:46;;;;;;;;;18.25;15.00;;;;;5.51;94.64;100113.72;5027063;28;11183;-72
2021/12/05 12:15:14;;;;;;;;;18.00;15.00;;;;;5.55;94.92;100120.41;5020518;28;11516;-71
2021/12/05 12:17:44;;;;;;;;;14.75;14.00;;;;;5.46;94.16;100124.16;5009259;28;11099;-70
2021/12/05 12:20:21;;;;;;;;;23.75;16.00;;;;;5.41;94.93;100123.81;5026112;28;11505;-70
2021/12/05 12:22:50;;;;;;;;;19.25;18.00;;;;;5.37;95.47;100128.69;5027989;28;11534;-71
2021/12/05 12:25:20;;;;;;;;;17.25;17.25;;;;;5.39;95.60;100137.41;5021558;28;11607;-71
2021/12/05 12:27:49;;;;;;;;;19.50;14.25;;;;;5.27;95.59;100133.44;5016490;28;11300;-71
2021/12/05 12:30:24;;;;;;;;;21.00;12.50;;;;;5.30;96.07;100135.78;5012332;28;11539;-70
2021/12/05 12:33:03;;;;;;;;;17.50;15.00;;;;;5.28;96.16;100145.84;5009009;28;11519;-70
2021/12/05 12:35:33;;;;;;;;;14.75;14.75;;;;;5.22;96.27;100151.91;5023345;28;11282;-72
2021/12/05 12:38:08;;;;;;;;;26.50;19.00;;;;;5.28;96.71;100156.56;5024812;28;11541;-68
2021/12/05 12:40:52;;;;;;;;;20.00;14.25;;;;;5.27;97.03;100154.91;5028609;28;11685;-68
2021/12/05 12:43:38;;;;;;;;;14.00;12.75;;;;;5.17;96.60;100163.13;5018568;28;11560;-71
2021/12/05 12:46:23;;;;;;;;;16.50;15.25;;;;;5.17;96.49;100167.66;5024637;28;11177;-71
2021/12/05 12:48:57;;;;;;;;;16.50;13.75;;;;;5.19;96.98;100166.47;5047408;28;11187;-71
2021/12/05 12:51:40;;;;;;;;;13.25;11.50;;;;;5.27;97.36;100167.47;5011577;28;11296;-71
2021/12/05 12:54:17;;;;;;;;;14.75;14.75;;;;;5.22;97.08;100173.38;5027997;28;11256;-71
2021/12/05 12:57:13;;;;;;;;;15.50;15.00;;;;;5.25;97.12;100175.72;5019593;28;11298;-72
2021/12/05 13:00:03;;;;;;;;;21.25;15.25;;;;;5.23;97.34;100175.03;5025927;28;11374;-72
2021/12/05 13:02:56;;;;;;;;;19.25;14.25;;;;;5.30;97.75;100176.03;5026697;28;11601;-72
2021/12/05 13:11:10;;;;;;;;;10.75;8.75;;;;;5.32;97.86;100178.53;5025350;28;11200;-72
2021/12/05 13:13:39;;;;;;;;;14.50;13.00;;;;;5.34;98.42;100182.72;5019164;28;11068;-71
2021/12/05 13:16:19;;;;;;;;;17.75;15.50;;;;;5.37;98.31;100189.59;5021754;28;11612;-71
2021/12/05 13:18:56;;;;;;;;;13.25;13.25;;;;;5.39;98.52;100201.81;5013875;28;11514;-71
2021/12/05 13:21:31;;;;;;;;;11.25;11.25;;;;;5.40;98.58;100198.13;5028579;28;11088;-72
2021/12/05 13:23:58;;;;;;;;;19.50;14.75;;;;;5.39;99.00;100201.81;5014853;28;11089;-71
2021/12/05 13:26:24;;;;;;;;;18.25;13.75;;;;;5.37;99.19;100203.84;5027170;28;11262;-72
2021/12/05 13:28:59;;;;;;;;;14.50;10.50;;;;;5.40;99.31;100208.88;5028715;28;11525;-71
2021/12/05 13:31:28;;;;;;;;;14.75;10.50;;;;;5.39;99.21;100212.56;5020490;28;11904;-70
2021/12/05 13:34:25;;;;;;;;;17.00;10.75;;;;;5.41;99.35;100212.38;5019245;28;10974;-72
2021/12/05 13:37:10;;;;;;;;;15.25;10.50;;;;;5.34;99.04;100222.97;5012856;28;11102;-71
2021/12/05 13:39:37;;;;;;;;;18.50;14.00;;;;;5.27;99.17;100229.22;5003367;28;11559;-71
2021/12/05 13:42:13;;;;;;;;;17.00;10.50;;;;;5.33;98.93;100236.56;5015588;28;11875;-72
2021/12/05 13:44:58;;;;;;;;;15.75;13.75;;;;;6.96;100.00;100239.38;5026009;28;11097;-70
2021/12/05 13:47:51;;;;;;;;;11.25;9.00;;;;;5.78;99.72;100241.34;5004974;28;11482;-71
2021/12/05 13:50:18;;;;;;;;;13.25;13.25;;;;;5.52;98.11;100244.25;5001952;28;11366;-72
2021/12/05 13:52:49;;;;;;;;;17.75;13.00;;;;;5.38;98.06;100256.53;5009011;28;11116;-71
2021/12/05 13:55:39;;;;;;;;;17.25;14.50;;;;;5.36;98.33;100261.22;5010836;28;11004;-72
2021/12/05 13:58:29;;;;;;;;;18.25;16.50;;;;;5.34;98.67;100263.25;5029668;28;11212;-70
2021/12/05 14:01:07;;;;;;;;;20.75;15.25;;;;;5.36;98.58;100268.44;5019816;28;11842;-71
2021/12/05 14:03:38;;;;;;;;;13.00;10.00;;;;;5.29;98.57;100267.44;5028991;28;11201;-71
2021/12/05 14:06:27;;;;;;;;;11.50;11.00;;;;;5.31;98.85;100276.16;5013971;28;10915;-71
2021/12/05 14:09:19;;;;;;;;;15.25;14.50;;;;;5.32;98.89;100285.88;5027286;28;10967;-71
2021/12/05 14:11:59;;;;;;;;;13.25;10.25;;;;;5.28;98.77;100295.28;5018294;28;11141;-70
2021/12/05 14:14:43;;;;;;;;;14.75;11.75;;;;;5.33;99.00;100301.81;5016973;28;11101;-70
2021/12/05 14:17:20;;;;;;;;;18.25;15.25;;;;;5.29;98.95;100302.34;5030884;28;11115;-69
2021/12/05 14:19:50;;;;;;;;;13.00;10.00;;;;;5.28;98.81;100314.06;5029926;28;11259;-70
2021/12/05 14:22:18;;;;;;;;;19.50;18.00;;;;;5.27;99.10;100321.28;5029615;28;11364;-72
2021/12/05 14:24:49;;;;;;;;;20.25;14.50;;;;;5.27;99.03;100329.34;5019920;28;11313;-69
2021/12/05 14:27:19;;;;;;;;;21.50;15.25;;;;;5.16;99.07;100326.97;5027558;28;11281;-70
2021/12/05 14:29:48;;;;;;;;;19.50;15.00;;;;;5.21;99.64;100330.03;5019101;28;11542;-69
2021/12/05 14:32:25;;;;;;;;;25.50;17.75;;;;;5.16;99.36;100349.28;5014981;28;11998;-68
2021/12/05 14:35:08;;;;;;;;;16.50;12.25;;;;;5.12;99.51;100349.78;5028809;28;11319;-69
2021/12/05 14:37:37;;;;;;;;;24.25;21.50;;;;;5.15;99.99;100362.84;5025070;28;11562;-70
2021/12/05 14:40:06;;;;;;;;;16.75;15.00;;;;;5.13;99.50;100363.03;5030760;28;11665;-70
2021/12/05 14:42:35;;;;;;;;;19.00;12.50;;;;;5.06;99.69;100356.66;5026145;28;11274;-69
2021/12/05 14:45:23;;;;;;;;;24.00;15.50;;;;;5.02;99.84;100368.72;5013885;28;11908;-69
2021/12/05 14:47:52;;;;;;;;;25.00;15.50;;;;;5.06;100.00;100372.75;5025939;28;11233;-69
2021/12/05 14:50:27;;;;;;;;;13.00;11.50;;;;;5.15;100.00;100376.28;5029094;28;11320;-70
2021/12/05 14:52:57;;;;;;;;;15.25;14.75;;;;;5.14;100.00;100382.66;5029724;28;11098;-70
2021/12/05 14:55:27;;;;;;;;;11.75;11.25;;;;;5.16;99.75;100381.47;5028081;28;11193;-70
2021/12/05 14:57:56;;;;;;;;;9.50;9.50;;;;;5.15;99.87;100390.53;5021692;28;11093;-70
2021/12/05 15:00:26;;;;;;;;;11.75;11.25;;;;;5.17;100.00;100398.41;5022651;28;10969;-70
2021/12/05 15:03:17;;;;;;;;;15.00;14.25;;;;;5.15;99.79;100403.09;5028711;28;11095;-69
2021/12/05 15:05:51;;;;;;;;;13.00;11.50;;;;;5.07;99.52;100409.31;5023911;28;11022;-68
2021/12/05 15:08:21;;;;;;;;;13.25;10.75;;;;;5.07;99.88;100414.66;5009015;28;11069;-70
2021/12/05 15:10:54;;;;;;;;;18.50;14.00;;;;;5.01;99.77;100426.06;5024968;28;11329;-70
2021/12/05 15:13:21;;;;;;;;;14.75;12.25;;;;;5.03;100.00;100429.41;5026858;28;11131;-70
2021/12/05 15:15:48;;;;;;;;;18.75;17.25;;;;;5.09;100.00;100427.91;5026584;28;11253;-71
2021/12/05 15:18:24;;;;;;;;;13.00;9.50;;;;;5.14;100.00;100439.84;5022661;28;11192;-69
2021/12/05 15:20:51;;;;;;;;;13.50;10.50;;;;;5.11;99.87;100434.78;5029907;28;11040;-70
2021/12/05 15:23:17;;;;;;;;;20.50;14.25;;;;;5.01;99.69;100447.53;5029428;28;11063;-71
2021/12/05 15:25:44;;;;;;;;;15.50;13.50;;;;;4.98;99.80;100447.00;5028161;28;11532;-70
2021/12/05 15:28:14;;;;;;;;;17.25;16.75;;;;;5.01;100.00;100454.72;5027669;28;11563;-69
2021/12/05 15:30:45;;;;;;;;;16.75;14.00;;;;;5.01;99.91;100466.31;5019335;28;11231;-70
2021/12/05 15:33:17;;;;;;;;;21.50;13.00;;;;;5.01;100.00;100470.81;5019359;28;10944;-71
2021/12/05 15:35:46;;;;;;;;;18.50;13.00;;;;;5.05;100.00;100482.91;5027251;28;11222;-70
2021/12/05 15:38:21;;;;;;;;;10.75;8.75;;;;;5.07;100.00;100489.78;5028891;28;11179;-70
2021/12/05 15:40:51;;;;;;;;;17.75;13.50;;;;;5.11;100.00;100487.63;5012223;28;11005;-69
2021/12/05 15:43:21;;;;;;;;;13.75;11.00;;;;;4.99;99.89;100491.63;5030746;28;11623;-70
2021/12/05 15:45:51;;;;;;;;;14.00;11.25;;;;;4.97;99.49;100496.31;5035537;28;11071;-70
2021/12/05 15:48:31;;;;;;;;;15.00;13.00;;;;;4.98;99.54;100496.13;5029426;28;11081;-70
2021/12/05 15:51:00;;;;;;;;;10.25;9.00;;;;;4.99;99.58;100495.13;5024967;28;11891;-71
2021/12/05 15:53:27;;;;;;;;;18.25;15.75;;;;;5.02;99.37;100507.38;5024352;28;11191;-68
2021/12/05 15:56:01;;;;;;;;;12.75;10.00;;;;;5.06;99.47;100504.22;5026910;28;11201;-69
2021/12/05 15:58:39;;;;;;;;;13.00;12.00;;;;;5.08;99.46;100514.78;5018372;28;11162;-68
2021/12/05 16:01:15;;;;;;;;;13.75;13.75;;;;;4.99;99.32;100518.44;5031342;28;11194;-69
2021/12/05 16:03:45;;;;;;;;;18.00;15.50;;;;;5.01;99.48;100527.16;5028295;28;11491;-69
2021/12/05 16:06:15;;;;;;;;;22.25;19.75;;;;;4.94;99.40;100527.78;5027595;28;11749;-69
2021/12/05 16:08:44;;;;;;;;;16.00;14.25;;;;;4.92;99.28;100526.25;5026825;28;11537;-71
2021/12/05 16:11:18;;;;;;;;;17.00;14.25;;;;;4.89;99.38;100535.47;5029922;28;11755;-70
2021/12/05 16:13:47;;;;;;;;;23.50;19.00;;;;;4.78;99.31;100546.50;5033402;28;11207;-69
2021/12/05 16:16:23;;;;;;;;;12.75;12.25;;;;;4.84;99.51;100548.53;5031421;28;11559;-70
2021/12/05 16:18:54;;;;;;;;;14.75;13.00;;;;;6.33;100.00;100560.38;5033465;28;11033;-70
2021/12/05 16:21:22;;;;;;;;;15.00;14.25;;;;;5.28;98.61;100571.72;5033227;28;11179;-70
2021/12/05 16:23:49;;;;;;;;;22.00;18.50;;;;;5.15;98.49;100574.84;5025239;28;12054;-68
2021/12/05 16:26:28;;;;;;;;;22.00;14.25;;;;;5.03;98.79;100592.22;5025821;28;11670;-71
2021/12/05 16:28:58;;;;;;;;;12.00;11.00;;;;;5.07;99.25;100596.28;5032150;28;11038;-70
2021/12/05 16:31:30;;;;;;;;;15.00;13.50;;;;;5.07;99.22;100599.78;5033096;28;10966;-71
2021/12/05 16:34:03;;;;;;;;;16.00;11.75;;;;;5.02;99.03;100612.00;5032207;28;10977;-68
2021/12/05 16:36:32;;;;;;;;;19.75;16.25;;;;;4.98;98.91;100610.66;5032682;28;11721;-70
2021/12/05 16:39:10;;;;;;;;;21.75;16.50;;;;;5.06;99.10;100619.56;5032390;28;11130;-70
2021/12/05 16:41:41;;;;;;;;;16.75;16.00;;;;;5.00;99.11;100625.59;5031461;28;11038;-69
2021/12/05 16:44:12;;;;;;;;;16.25;14.00;;;;;5.00;98.78;100630.94;5027315;28;11297;-70
2021/12/05 16:46:49;;;;;;;;;17.00;14.75;;;;;5.30;100.00;100640.34;5030519;28;11265;-67
2021/12/05 16:49:20;;;;;;;;;16.75;16.00;;;;;7.31;100.00;100639.09;5030566;28;11352;-67
2021/12/05 16:51:49;;;;;;;;;15.75;13.50;;;;;7.79;100.00;100637.22;5033380;28;11205;-67
2021/12/05 16:54:24;;;;;;;;;16.00;11.75;;;;;7.84;100.00;100634.84;5032552;28;10978;-67
2021/12/05 16:56:58;;;;;;;;;20.00;17.50;;;;;7.97;100.00;100646.72;5031331;28;10832;-68
2021/12/05 16:59:53;;;;;;;;;18.25;16.00;;;;;8.05;99.52;100650.38;5012806;28;11047;-68
2021/12/05 17:02:34;;;;;;;;;17.25;16.25;;;;;8.40;98.43;100655.25;5018300;28;10911;-67
2021/12/05 17:05:34;;;;;;;;;21.75;17.25;;;;;8.58;96.06;100654.94;5028201;28;10878;-67